sensor_id;sensor_type;location;lat;lon;timestamp;P1;durP1;ratioP1;P2;durP2;ratioP2
45368;SDS011;51342;55.250;37.668;2023-07-31T00:00:48;4.53;;;2.92;;
45368;SDS011;51342;55.250;37.668;2023-07-31T00:03:19;6.15;;;2.90;;
45368;SDS011;51342;55.250;37.668;2023-07-31T00:05:51;3.92;;;2.65;;
45368;SDS011;51342;55.250;37.668;2023-07-31T00:08:22;6.35;;;2.97;;
45368;SDS011;51342;55.250;37.668;2023-07-31T00:10:54;5.18;;;3.00;;
45368;SDS011;51342;55.250;37.668;2023-07-31T00:13:25;6.20;;;3.30;;
45368;SDS011;51342;55.250;37.668;2023-07-31T00:15:56;7.63;;;3.10;;
45368;SDS011;51342;55.250;37.668;2023-07-31T00:18:28;3.88;;;3.03;;
45368;SDS011;51342;55.250;37.668;2023-07-31T00:20:59;8.25;;;3.03;;
45368;SDS011;51342;55.250;37.668;2023-07-31T00:23:30;6.22;;;3.28;;
45368;SDS011;51342;55.250;37.668;2023-07-31T00:26:02;5.25;;;2.70;;
45368;SDS011;51342;55.250;37.668;2023-07-31T00:28:33;8.38;;;3.20;;
45368;SDS011;51342;55.250;37.668;2023-07-31T00:31:05;5.05;;;2.70;;
45368;SDS011;51342;55.250;37.668;2023-07-31T00:33:37;4.35;;;2.90;;
45368;SDS011;51342;55.250;37.668;2023-07-31T00:36:08;6.20;;;3.20;;
45368;SDS011;51342;55.250;37.668;2023-07-31T00:38:40;5.07;;;2.50;;
45368;SDS011;51342;55.250;37.668;2023-07-31T00:41:11;5.88;;;3.05;;
45368;SDS011;51342;55.250;37.668;2023-07-31T00:43:42;4.07;;;2.78;;
45368;SDS011;51342;55.250;37.668;2023-07-31T00:46:14;4.47;;;2.97;;
45368;SDS011;51342;55.250;37.668;2023-07-31T00:48:45;4.35;;;3.00;;
45368;SDS011;51342;55.250;37.668;2023-07-31T00:51:16;7.22;;;3.10;;
45368;SDS011;51342;55.250;37.668;2023-07-31T00:53:48;7.07;;;2.95;;
45368;SDS011;51342;55.250;37.668;2023-07-31T00:56:20;7.30;;;2.85;;
45368;SDS011;51342;55.250;37.668;2023-07-31T00:58:51;5.63;;;2.80;;
45368;SDS011;51342;55.250;37.668;2023-07-31T01:01:22;6.10;;;2.78;;
45368;SDS011;51342;55.250;37.668;2023-07-31T01:03:54;5.07;;;2.53;;
45368;SDS011;51342;55.250;37.668;2023-07-31T01:12:26;7.32;;;2.35;;
45368;SDS011;51342;55.250;37.668;2023-07-31T01:17:39;5.28;;;2.58;;
45368;SDS011;51342;55.250;37.668;2023-07-31T01:20:15;5.50;;;3.00;;
45368;SDS011;51342;55.250;37.668;2023-07-31T01:25:56;5.13;;;3.05;;
45368;SDS011;51342;55.250;37.668;2023-07-31T01:28:44;5.80;;;2.88;;
45368;SDS011;51342;55.250;37.668;2023-07-31T01:31:25;4.18;;;2.55;;
45368;SDS011;51342;55.250;37.668;2023-07-31T01:34:00;4.20;;;2.80;;
45368;SDS011;51342;55.250;37.668;2023-07-31T01:36:32;5.40;;;2.70;;
45368;SDS011;51342;55.250;37.668;2023-07-31T01:39:04;3.95;;;2.78;;
45368;SDS011;51342;55.250;37.668;2023-07-31T01:41:35;3.60;;;2.60;;
45368;SDS011;51342;55.250;37.668;2023-07-31T01:44:07;5.32;;;2.92;;
45368;SDS011;51342;55.250;37.668;2023-07-31T01:46:39;5.57;;;3.03;;
45368;SDS011;51342;55.250;37.668;2023-07-31T01:52:05;5.78;;;3.03;;
45368;SDS011;51342;55.250;37.668;2023-07-31T01:54:36;4.30;;;3.10;;
45368;SDS011;51342;55.250;37.668;2023-07-31T01:57:08;4.38;;;2.80;;
45368;SDS011;51342;55.250;37.668;2023-07-31T01:59:39;5.45;;;2.92;;
45368;SDS011;51342;55.250;37.668;2023-07-31T02:02:11;5.03;;;2.80;;
45368;SDS011;51342;55.250;37.668;2023-07-31T02:04:42;5.68;;;2.90;;
45368;SDS011;51342;55.250;37.668;2023-07-31T02:07:13;3.63;;;2.53;;
45368;SDS011;51342;55.250;37.668;2023-07-31T02:09:45;6.15;;;2.67;;
45368;SDS011;51342;55.250;37.668;2023-07-31T02:12:18;4.85;;;2.85;;
45368;SDS011;51342;55.250;37.668;2023-07-31T02:14:50;4.40;;;3.10;;
45368;SDS011;51342;55.250;37.668;2023-07-31T02:17:22;5.00;;;2.90;;
45368;SDS011;51342;55.250;37.668;2023-07-31T02:19:53;4.43;;;3.10;;
45368;SDS011;51342;55.250;37.668;2023-07-31T02:22:25;4.22;;;2.90;;
45368;SDS011;51342;55.250;37.668;2023-07-31T02:24:56;5.00;;;3.22;;
45368;SDS011;51342;55.250;37.668;2023-07-31T02:27:28;3.95;;;2.53;;
45368;SDS011;51342;55.250;37.668;2023-07-31T02:29:59;5.03;;;3.00;;
45368;SDS011;51342;55.250;37.668;2023-07-31T02:32:31;4.97;;;2.97;;
45368;SDS011;51342;55.250;37.668;2023-07-31T02:35:03;3.38;;;2.60;;
45368;SDS011;51342;55.250;37.668;2023-07-31T02:37:34;5.82;;;2.60;;
45368;SDS011;51342;55.250;37.668;2023-07-31T02:40:06;6.65;;;3.05;;
45368;SDS011;51342;55.250;37.668;2023-07-31T02:42:38;4.32;;;2.80;;
45368;SDS011;51342;55.250;37.668;2023-07-31T02:45:09;4.35;;;2.65;;
45368;SDS011;51342;55.250;37.668;2023-07-31T02:47:41;6.45;;;2.80;;
45368;SDS011;51342;55.250;37.668;2023-07-31T02:50:12;3.97;;;2.65;;
45368;SDS011;51342;55.250;37.668;2023-07-31T02:52:44;4.72;;;3.03;;
45368;SDS011;51342;55.250;37.668;2023-07-31T02:55:15;3.80;;;2.25;;
45368;SDS011;51342;55.250;37.668;2023-07-31T02:57:47;3.72;;;2.10;;
45368;SDS011;51342;55.250;37.668;2023-07-31T03:00:19;2.80;;;2.00;;
45368;SDS011;51342;55.250;37.668;2023-07-31T03:02:50;5.53;;;2.10;;
45368;SDS011;51342;55.250;37.668;2023-07-31T03:05:22;3.47;;;2.00;;
45368;SDS011;51342;55.250;37.668;2023-07-31T03:07:53;4.38;;;2.20;;
45368;SDS011;51342;55.250;37.668;2023-07-31T03:10:24;4.13;;;2.53;;
45368;SDS011;51342;55.250;37.668;2023-07-31T03:12:56;6.00;;;2.80;;
45368;SDS011;51342;55.250;37.668;2023-07-31T03:15:27;3.95;;;2.50;;
45368;SDS011;51342;55.250;37.668;2023-07-31T03:17:59;5.22;;;2.50;;
45368;SDS011;51342;55.250;37.668;2023-07-31T03:20:30;5.03;;;2.90;;
45368;SDS011;51342;55.250;37.668;2023-07-31T03:23:01;5.20;;;2.70;;
45368;SDS011;51342;55.250;37.668;2023-07-31T03:25:33;3.67;;;2.47;;
45368;SDS011;51342;55.250;37.668;2023-07-31T03:28:04;4.97;;;2.67;;
45368;SDS011;51342;55.250;37.668;2023-07-31T03:30:36;4.30;;;2.58;;
45368;SDS011;51342;55.250;37.668;2023-07-31T03:33:09;6.05;;;2.60;;
45368;SDS011;51342;55.250;37.668;2023-07-31T03:35:40;3.45;;;2.75;;
45368;SDS011;51342;55.250;37.668;2023-07-31T03:38:11;5.82;;;2.75;;
45368;SDS011;51342;55.250;37.668;2023-07-31T03:40:43;3.72;;;2.78;;
45368;SDS011;51342;55.250;37.668;2023-07-31T03:43:15;4.55;;;2.83;;
45368;SDS011;51342;55.250;37.668;2023-07-31T03:45:47;4.32;;;2.70;;
45368;SDS011;51342;55.250;37.668;2023-07-31T03:48:18;5.75;;;3.30;;
45368;SDS011;51342;55.250;37.668;2023-07-31T03:54:43;4.60;;;2.72;;
45368;SDS011;51342;55.250;37.668;2023-07-31T03:57:18;3.88;;;3.05;;
45368;SDS011;51342;55.250;37.668;2023-07-31T03:59:49;4.82;;;2.90;;
45368;SDS011;51342;55.250;37.668;2023-07-31T04:02:21;5.32;;;2.70;;
45368;SDS011;51342;55.250;37.668;2023-07-31T04:04:52;3.03;;;2.67;;
45368;SDS011;51342;55.250;37.668;2023-07-31T04:07:23;6.10;;;3.35;;
45368;SDS011;51342;55.250;37.668;2023-07-31T04:09:55;4.20;;;3.20;;
45368;SDS011;51342;55.250;37.668;2023-07-31T04:12:27;3.65;;;3.20;;
45368;SDS011;51342;55.250;37.668;2023-07-31T04:14:58;6.40;;;3.08;;
45368;SDS011;51342;55.250;37.668;2023-07-31T04:17:30;5.57;;;2.83;;
45368;SDS011;51342;55.250;37.668;2023-07-31T04:20:01;3.30;;;2.83;;
45368;SDS011;51342;55.250;37.668;2023-07-31T04:22:33;6.00;;;3.20;;
45368;SDS011;51342;55.250;37.668;2023-07-31T04:25:04;4.30;;;3.00;;
45368;SDS011;51342;55.250;37.668;2023-07-31T04:27:36;4.03;;;2.92;;
45368;SDS011;51342;55.250;37.668;2023-07-31T04:30:07;3.30;;;3.00;;
45368;SDS011;51342;55.250;37.668;2023-07-31T04:32:39;4.65;;;3.05;;
45368;SDS011;51342;55.250;37.668;2023-07-31T04:35:10;3.72;;;2.95;;
45368;SDS011;51342;55.250;37.668;2023-07-31T04:37:42;4.03;;;2.85;;
45368;SDS011;51342;55.250;37.668;2023-07-31T04:40:13;5.20;;;3.10;;
45368;SDS011;51342;55.250;37.668;2023-07-31T04:42:45;4.18;;;2.92;;
45368;SDS011;51342;55.250;37.668;2023-07-31T04:45:17;4.47;;;3.20;;
45368;SDS011;51342;55.250;37.668;2023-07-31T04:47:48;6.30;;;3.10;;
45368;SDS011;51342;55.250;37.668;2023-07-31T04:50:19;3.72;;;2.95;;
45368;SDS011;51342;55.250;37.668;2023-07-31T04:52:51;5.90;;;3.15;;
45368;SDS011;51342;55.250;37.668;2023-07-31T04:55:22;4.97;;;2.83;;
45368;SDS011;51342;55.250;37.668;2023-07-31T04:57:53;5.93;;;3.40;;
45368;SDS011;51342;55.250;37.668;2023-07-31T05:00:25;4.38;;;3.28;;
45368;SDS011;51342;55.250;37.668;2023-07-31T05:02:56;6.25;;;3.63;;
45368;SDS011;51342;55.250;37.668;2023-07-31T05:05:28;4.97;;;3.38;;
45368;SDS011;51342;55.250;37.668;2023-07-31T05:07:59;4.05;;;3.20;;
45368;SDS011;51342;55.250;37.668;2023-07-31T05:10:30;3.42;;;3.13;;
45368;SDS011;51342;55.250;37.668;2023-07-31T05:13:02;5.53;;;3.72;;
45368;SDS011;51342;55.250;37.668;2023-07-31T05:15:33;4.68;;;3.45;;
45368;SDS011;51342;55.250;37.668;2023-07-31T05:18:05;3.90;;;3.00;;
45368;SDS011;51342;55.250;37.668;2023-07-31T05:20:36;5.10;;;3.08;;
45368;SDS011;51342;55.250;37.668;2023-07-31T05:23:08;5.25;;;2.70;;
45368;SDS011;51342;55.250;37.668;2023-07-31T05:25:39;6.25;;;2.80;;
45368;SDS011;51342;55.250;37.668;2023-07-31T05:28:11;5.63;;;2.17;;
45368;SDS011;51342;55.250;37.668;2023-07-31T05:30:43;3.55;;;2.08;;
45368;SDS011;51342;55.250;37.668;2023-07-31T05:33:15;2.65;;;2.13;;
45368;SDS011;51342;55.250;37.668;2023-07-31T05:35:46;3.95;;;2.38;;
45368;SDS011;51342;55.250;37.668;2023-07-31T05:38:17;3.95;;;2.33;;
45368;SDS011;51342;55.250;37.668;2023-07-31T05:40:49;2.67;;;2.17;;
45368;SDS011;51342;55.250;37.668;2023-07-31T05:43:20;2.95;;;2.45;;
45368;SDS011;51342;55.250;37.668;2023-07-31T05:45:52;3.92;;;2.50;;
45368;SDS011;51342;55.250;37.668;2023-07-31T05:48:23;3.45;;;2.00;;
45368;SDS011;51342;55.250;37.668;2023-07-31T05:50:54;2.17;;;1.88;;
45368;SDS011;51342;55.250;37.668;2023-07-31T05:53:26;3.63;;;1.67;;
45368;SDS011;51342;55.250;37.668;2023-07-31T05:55:58;2.50;;;1.73;;
45368;SDS011;51342;55.250;37.668;2023-07-31T05:58:30;2.30;;;2.03;;
45368;SDS011;51342;55.250;37.668;2023-07-31T06:01:01;3.65;;;2.10;;
45368;SDS011;51342;55.250;37.668;2023-07-31T06:03:33;3.33;;;2.22;;
45368;SDS011;51342;55.250;37.668;2023-07-31T06:06:04;3.15;;;1.77;;
45368;SDS011;51342;55.250;37.668;2023-07-31T06:08:36;4.05;;;1.80;;
45368;SDS011;51342;55.250;37.668;2023-07-31T06:11:07;2.70;;;1.60;;
45368;SDS011;51342;55.250;37.668;2023-07-31T06:13:40;2.85;;;1.70;;
45368;SDS011;51342;55.250;37.668;2023-07-31T06:16:11;4.05;;;1.85;;
45368;SDS011;51342;55.250;37.668;2023-07-31T06:18:42;3.58;;;1.80;;
45368;SDS011;51342;55.250;37.668;2023-07-31T06:21:14;2.33;;;1.63;;
45368;SDS011;51342;55.250;37.668;2023-07-31T06:23:45;2.10;;;1.60;;
45368;SDS011;51342;55.250;37.668;2023-07-31T06:26:17;3.30;;;2.00;;
45368;SDS011;51342;55.250;37.668;2023-07-31T06:28:48;2.65;;;1.80;;
45368;SDS011;51342;55.250;37.668;2023-07-31T06:31:20;2.47;;;1.77;;
45368;SDS011;51342;55.250;37.668;2023-07-31T06:33:53;2.58;;;1.60;;
45368;SDS011;51342;55.250;37.668;2023-07-31T06:36:25;2.20;;;1.65;;
45368;SDS011;51342;55.250;37.668;2023-07-31T06:38:56;1.92;;;1.67;;
45368;SDS011;51342;55.250;37.668;2023-07-31T06:41:28;2.72;;;1.88;;
45368;SDS011;51342;55.250;37.668;2023-07-31T06:43:59;1.90;;;1.50;;
45368;SDS011;51342;55.250;37.668;2023-07-31T06:46:31;2.72;;;1.80;;
45368;SDS011;51342;55.250;37.668;2023-07-31T06:49:02;1.55;;;1.45;;
45368;SDS011;51342;55.250;37.668;2023-07-31T06:51:34;2.00;;;1.27;;
45368;SDS011;51342;55.250;37.668;2023-07-31T06:54:07;3.58;;;1.58;;
45368;SDS011;51342;55.250;37.668;2023-07-31T06:56:39;2.38;;;1.60;;
45368;SDS011;51342;55.250;37.668;2023-07-31T06:59:11;2.20;;;1.52;;
45368;SDS011;51342;55.250;37.668;2023-07-31T07:01:42;5.07;;;1.58;;
45368;SDS011;51342;55.250;37.668;2023-07-31T07:04:14;1.67;;;1.40;;
45368;SDS011;51342;55.250;37.668;2023-07-31T07:06:45;1.80;;;1.20;;
45368;SDS011;51342;55.250;37.668;2023-07-31T07:09:17;4.97;;;1.63;;
45368;SDS011;51342;55.250;37.668;2023-07-31T07:11:49;2.75;;;1.30;;
45368;SDS011;51342;55.250;37.668;2023-07-31T07:14:21;1.67;;;1.27;;
45368;SDS011;51342;55.250;37.668;2023-07-31T07:16:53;4.05;;;1.40;;
45368;SDS011;51342;55.250;37.668;2023-07-31T07:19:24;2.47;;;1.73;;
45368;SDS011;51342;55.250;37.668;2023-07-31T07:21:56;2.70;;;1.50;;
45368;SDS011;51342;55.250;37.668;2023-07-31T07:24:28;1.80;;;1.20;;
45368;SDS011;51342;55.250;37.668;2023-07-31T07:26:59;1.77;;;1.40;;
45368;SDS011;51342;55.250;37.668;2023-07-31T07:29:31;4.88;;;1.00;;
45368;SDS011;51342;55.250;37.668;2023-07-31T07:32:02;2.38;;;1.08;;
45368;SDS011;51342;55.250;37.668;2023-07-31T07:34:34;3.30;;;1.35;;
45368;SDS011;51342;55.250;37.668;2023-07-31T07:37:05;4.55;;;1.50;;
45368;SDS011;51342;55.250;37.668;2023-07-31T07:39:37;2.45;;;1.40;;
45368;SDS011;51342;55.250;37.668;2023-07-31T07:42:08;1.35;;;1.05;;
45368;SDS011;51342;55.250;37.668;2023-07-31T07:44:39;2.75;;;1.40;;
45368;SDS011;51342;55.250;37.668;2023-07-31T07:47:12;4.53;;;1.10;;
45368;SDS011;51342;55.250;37.668;2023-07-31T07:49:44;1.73;;;1.30;;
45368;SDS011;51342;55.250;37.668;2023-07-31T07:56:15;5.25;;;1.38;;
45368;SDS011;51342;55.250;37.668;2023-07-31T07:58:50;3.03;;;1.50;;
45368;SDS011;51342;55.250;37.668;2023-07-31T08:01:21;2.25;;;1.35;;
45368;SDS011;51342;55.250;37.668;2023-07-31T08:03:53;3.58;;;1.10;;
45368;SDS011;51342;55.250;37.668;2023-07-31T08:06:24;2.47;;;1.20;;
45368;SDS011;51342;55.250;37.668;2023-07-31T08:08:55;1.95;;;1.10;;
45368;SDS011;51342;55.250;37.668;2023-07-31T08:11:27;1.90;;;1.30;;
45368;SDS011;51342;55.250;37.668;2023-07-31T08:13:58;2.15;;;1.42;;
45368;SDS011;51342;55.250;37.668;2023-07-31T08:16:30;2.13;;;1.20;;
45368;SDS011;51342;55.250;37.668;2023-07-31T08:19:01;2.22;;;1.40;;
45368;SDS011;51342;55.250;37.668;2023-07-31T08:21:33;2.13;;;1.30;;
45368;SDS011;51342;55.250;37.668;2023-07-31T08:24:04;1.85;;;1.23;;
45368;SDS011;51342;55.250;37.668;2023-07-31T08:26:36;1.38;;;1.15;;
45368;SDS011;51342;55.250;37.668;2023-07-31T08:29:07;1.80;;;1.00;;
45368;SDS011;51342;55.250;37.668;2023-07-31T08:31:38;1.77;;;1.20;;
45368;SDS011;51342;55.250;37.668;2023-07-31T08:34:10;1.48;;;1.00;;
45368;SDS011;51342;55.250;37.668;2023-07-31T08:36:41;2.78;;;1.23;;
45368;SDS011;51342;55.250;37.668;2023-07-31T08:39:12;2.97;;;1.20;;
45368;SDS011;51342;55.250;37.668;2023-07-31T08:41:44;1.83;;;1.33;;
45368;SDS011;51342;55.250;37.668;2023-07-31T08:44:15;1.55;;;1.13;;
45368;SDS011;51342;55.250;37.668;2023-07-31T08:46:48;1.52;;;1.25;;
45368;SDS011;51342;55.250;37.668;2023-07-31T08:49:20;2.40;;;1.33;;
45368;SDS011;51342;55.250;37.668;2023-07-31T08:51:54;1.63;;;1.35;;
45368;SDS011;51342;55.250;37.668;2023-07-31T08:54:29;1.58;;;1.13;;
45368;SDS011;51342;55.250;37.668;2023-07-31T08:57:01;1.83;;;1.35;;
45368;SDS011;51342;55.250;37.668;2023-07-31T08:59:34;3.38;;;1.35;;
45368;SDS011;51342;55.250;37.668;2023-07-31T09:02:07;2.03;;;1.50;;
45368;SDS011;51342;55.250;37.668;2023-07-31T09:04:39;2.10;;;1.20;;
45368;SDS011;51342;55.250;37.668;2023-07-31T09:07:10;2.35;;;1.10;;
45368;SDS011;51342;55.250;37.668;2023-07-31T09:09:45;1.60;;;1.17;;
45368;SDS011;51342;55.250;37.668;2023-07-31T09:12:16;1.40;;;1.25;;
45368;SDS011;51342;55.250;37.668;2023-07-31T09:14:48;2.92;;;1.45;;
45368;SDS011;51342;55.250;37.668;2023-07-31T09:17:32;1.70;;;1.30;;
45368;SDS011;51342;55.250;37.668;2023-07-31T09:22:46;2.22;;;1.38;;
45368;SDS011;51342;55.250;37.668;2023-07-31T09:25:23;1.63;;;1.30;;
45368;SDS011;51342;55.250;37.668;2023-07-31T09:28:01;1.77;;;1.30;;
45368;SDS011;51342;55.250;37.668;2023-07-31T09:33:21;3.03;;;1.60;;
45368;SDS011;51342;55.250;37.668;2023-07-31T09:35:52;1.95;;;1.50;;
45368;SDS011;51342;55.250;37.668;2023-07-31T09:38:24;1.85;;;1.35;;
45368;SDS011;51342;55.250;37.668;2023-07-31T09:40:55;2.13;;;1.25;;
45368;SDS011;51342;55.250;37.668;2023-07-31T09:43:30;1.65;;;1.23;;
45368;SDS011;51342;55.250;37.668;2023-07-31T09:46:01;2.00;;;1.35;;
45368;SDS011;51342;55.250;37.668;2023-07-31T09:48:38;2.45;;;1.15;;
45368;SDS011;51342;55.250;37.668;2023-07-31T09:51:09;1.40;;;1.20;;
45368;SDS011;51342;55.250;37.668;2023-07-31T09:56:36;2.22;;;1.30;;
45368;SDS011;51342;55.250;37.668;2023-07-31T09:59:12;2.92;;;1.10;;
45368;SDS011;51342;55.250;37.668;2023-07-31T10:01:45;1.85;;;1.55;;
45368;SDS011;51342;55.250;37.668;2023-07-31T10:04:17;2.10;;;1.42;;
45368;SDS011;51342;55.250;37.668;2023-07-31T10:06:54;2.20;;;1.50;;
45368;SDS011;51342;55.250;37.668;2023-07-31T10:09:26;1.70;;;1.48;;
45368;SDS011;51342;55.250;37.668;2023-07-31T10:12:02;1.80;;;1.50;;
45368;SDS011;51342;55.250;37.668;2023-07-31T10:14:41;3.17;;;1.40;;
45368;SDS011;51342;55.250;37.668;2023-07-31T10:17:13;2.42;;;1.40;;
45368;SDS011;51342;55.250;37.668;2023-07-31T10:19:45;1.67;;;1.38;;
45368;SDS011;51342;55.250;37.668;2023-07-31T10:22:18;1.63;;;1.42;;
45368;SDS011;51342;55.250;37.668;2023-07-31T10:24:50;3.85;;;1.48;;
45368;SDS011;51342;55.250;37.668;2023-07-31T10:27:26;3.00;;;1.40;;
45368;SDS011;51342;55.250;37.668;2023-07-31T10:29:57;1.80;;;1.50;;
45368;SDS011;51342;55.250;37.668;2023-07-31T10:32:30;1.95;;;1.73;;
45368;SDS011;51342;55.250;37.668;2023-07-31T10:35:03;2.03;;;1.35;;
45368;SDS011;51342;55.250;37.668;2023-07-31T10:37:39;2.53;;;1.45;;
45368;SDS011;51342;55.250;37.668;2023-07-31T10:40:16;3.22;;;1.20;;
45368;SDS011;51342;55.250;37.668;2023-07-31T10:45:34;3.35;;;1.42;;
45368;SDS011;51342;55.250;37.668;2023-07-31T10:48:13;1.58;;;1.30;;
45368;SDS011;51342;55.250;37.668;2023-07-31T10:56:07;2.65;;;1.50;;
45368;SDS011;51342;55.250;37.668;2023-07-31T10:58:39;3.88;;;1.70;;
45368;SDS011;51342;55.250;37.668;2023-07-31T11:01:15;1.77;;;1.48;;
45368;SDS011;51342;55.250;37.668;2023-07-31T11:03:47;1.70;;;1.40;;
45368;SDS011;51342;55.250;37.668;2023-07-31T11:06:23;3.30;;;1.60;;
45368;SDS011;51342;55.250;37.668;2023-07-31T11:09:00;3.35;;;1.83;;
45368;SDS011;51342;55.250;37.668;2023-07-31T11:11:31;3.75;;;1.58;;
45368;SDS011;51342;55.250;37.668;2023-07-31T11:14:04;3.10;;;1.65;;
45368;SDS011;51342;55.250;37.668;2023-07-31T11:16:36;2.55;;;1.50;;
45368;SDS011;51342;55.250;37.668;2023-07-31T11:19:08;3.20;;;1.63;;
45368;SDS011;51342;55.250;37.668;2023-07-31T11:21:39;1.95;;;1.60;;
45368;SDS011;51342;55.250;37.668;2023-07-31T11:24:12;3.42;;;1.90;;
45368;SDS011;51342;55.250;37.668;2023-07-31T11:26:53;2.92;;;1.75;;
45368;SDS011;51342;55.250;37.668;2023-07-31T11:29:26;3.20;;;1.80;;
45368;SDS011;51342;55.250;37.668;2023-07-31T11:31:59;2.90;;;1.92;;
45368;SDS011;51342;55.250;37.668;2023-07-31T11:34:31;3.85;;;1.85;;
45368;SDS011;51342;55.250;37.668;2023-07-31T11:37:02;3.30;;;1.83;;
45368;SDS011;51342;55.250;37.668;2023-07-31T11:39:34;2.58;;;1.90;;
45368;SDS011;51342;55.250;37.668;2023-07-31T11:42:05;2.80;;;2.10;;
45368;SDS011;51342;55.250;37.668;2023-07-31T11:44:40;2.08;;;1.65;;
45368;SDS011;51342;55.250;37.668;2023-07-31T11:47:14;2.75;;;2.08;;
45368;SDS011;51342;55.250;37.668;2023-07-31T11:49:47;4.03;;;2.25;;
45368;SDS011;51342;55.250;37.668;2023-07-31T11:52:20;2.03;;;1.50;;
45368;SDS011;51342;55.250;37.668;2023-07-31T11:58:42;5.95;;;1.85;;
45368;SDS011;51342;55.250;37.668;2023-07-31T12:01:18;2.55;;;1.75;;
45368;SDS011;51342;55.250;37.668;2023-07-31T12:03:51;3.75;;;2.20;;
45368;SDS011;51342;55.250;37.668;2023-07-31T12:06:32;2.58;;;1.83;;
45368;SDS011;51342;55.250;37.668;2023-07-31T12:09:04;4.15;;;1.70;;
45368;SDS011;51342;55.250;37.668;2023-07-31T12:11:43;3.65;;;1.90;;
45368;SDS011;51342;55.250;37.668;2023-07-31T12:14:22;2.35;;;1.83;;
45368;SDS011;51342;55.250;37.668;2023-07-31T12:16:57;4.05;;;1.80;;
45368;SDS011;51342;55.250;37.668;2023-07-31T12:19:34;2.58;;;2.05;;
45368;SDS011;51342;55.250;37.668;2023-07-31T12:22:12;4.55;;;2.00;;
45368;SDS011;51342;55.250;37.668;2023-07-31T12:24:44;4.65;;;2.28;;
45368;SDS011;51342;55.250;37.668;2023-07-31T12:27:16;3.40;;;1.92;;
45368;SDS011;51342;55.250;37.668;2023-07-31T12:29:49;2.63;;;1.80;;
45368;SDS011;51342;55.250;37.668;2023-07-31T12:32:21;2.20;;;1.75;;
45368;SDS011;51342;55.250;37.668;2023-07-31T12:34:53;3.78;;;2.05;;
45368;SDS011;51342;55.250;37.668;2023-07-31T12:37:25;2.50;;;2.10;;
45368;SDS011;51342;55.250;37.668;2023-07-31T12:39:56;2.45;;;2.00;;
45368;SDS011;51342;55.250;37.668;2023-07-31T12:42:31;2.67;;;2.03;;
45368;SDS011;51342;55.250;37.668;2023-07-31T12:45:03;4.63;;;2.70;;
45368;SDS011;51342;55.250;37.668;2023-07-31T12:47:34;3.03;;;2.20;;
45368;SDS011;51342;55.250;37.668;2023-07-31T12:50:06;2.55;;;2.10;;
45368;SDS011;51342;55.250;37.668;2023-07-31T12:52:38;3.50;;;2.00;;
45368;SDS011;51342;55.250;37.668;2023-07-31T12:55:09;2.85;;;2.25;;
45368;SDS011;51342;55.250;37.668;2023-07-31T12:57:41;2.75;;;1.98;;
45368;SDS011;51342;55.250;37.668;2023-07-31T13:00:13;2.10;;;1.90;;
45368;SDS011;51342;55.250;37.668;2023-07-31T13:02:45;2.83;;;2.10;;
45368;SDS011;51342;55.250;37.668;2023-07-31T13:05:16;2.83;;;2.20;;
45368;SDS011;51342;55.250;37.668;2023-07-31T13:07:47;4.15;;;2.30;;
45368;SDS011;51342;55.250;37.668;2023-07-31T13:10:19;3.28;;;2.08;;
45368;SDS011;51342;55.250;37.668;2023-07-31T13:12:51;2.28;;;1.95;;
45368;SDS011;51342;55.250;37.668;2023-07-31T13:15:23;3.85;;;2.08;;
45368;SDS011;51342;55.250;37.668;2023-07-31T13:17:55;3.22;;;2.33;;
45368;SDS011;51342;55.250;37.668;2023-07-31T13:20:26;2.35;;;2.00;;
45368;SDS011;51342;55.250;37.668;2023-07-31T13:22:58;2.58;;;1.88;;
45368;SDS011;51342;55.250;37.668;2023-07-31T13:25:29;3.55;;;2.35;;
45368;SDS011;51342;55.250;37.668;2023-07-31T13:28:00;3.83;;;2.28;;
45368;SDS011;51342;55.250;37.668;2023-07-31T13:30:32;3.78;;;2.28;;
45368;SDS011;51342;55.250;37.668;2023-07-31T13:33:04;2.50;;;1.80;;
45368;SDS011;51342;55.250;37.668;2023-07-31T13:35:35;2.92;;;2.05;;
45368;SDS011;51342;55.250;37.668;2023-07-31T13:38:07;2.90;;;1.90;;
45368;SDS011;51342;55.250;37.668;2023-07-31T13:40:38;3.53;;;2.35;;
45368;SDS011;51342;55.250;37.668;2023-07-31T13:43:09;2.97;;;2.28;;
45368;SDS011;51342;55.250;37.668;2023-07-31T13:45:41;3.83;;;2.22;;
45368;SDS011;51342;55.250;37.668;2023-07-31T13:48:12;2.90;;;2.30;;
45368;SDS011;51342;55.250;37.668;2023-07-31T13:50:43;3.58;;;2.33;;
45368;SDS011;51342;55.250;37.668;2023-07-31T13:53:15;2.88;;;2.50;;
45368;SDS011;51342;55.250;37.668;2023-07-31T13:58:40;6.32;;;2.30;;
45368;SDS011;51342;55.250;37.668;2023-07-31T14:01:12;4.93;;;2.30;;
45368;SDS011;51342;55.250;37.668;2023-07-31T14:03:43;4.38;;;2.60;;
45368;SDS011;51342;55.250;37.668;2023-07-31T14:06:14;5.88;;;2.20;;
45368;SDS011;51342;55.250;37.668;2023-07-31T14:08:46;3.35;;;2.20;;
45368;SDS011;51342;55.250;37.668;2023-07-31T14:11:17;4.32;;;2.40;;
45368;SDS011;51342;55.250;37.668;2023-07-31T14:13:50;2.30;;;2.00;;
45368;SDS011;51342;55.250;37.668;2023-07-31T14:16:21;4.57;;;2.25;;
45368;SDS011;51342;55.250;37.668;2023-07-31T14:18:53;3.28;;;2.65;;
45368;SDS011;51342;55.250;37.668;2023-07-31T14:21:25;6.57;;;2.28;;
45368;SDS011;51342;55.250;37.668;2023-07-31T14:23:57;2.85;;;2.17;;
45368;SDS011;51342;55.250;37.668;2023-07-31T14:26:28;5.18;;;2.67;;
45368;SDS011;51342;55.250;37.668;2023-07-31T14:28:59;3.63;;;2.33;;
45368;SDS011;51342;55.250;37.668;2023-07-31T14:31:31;2.15;;;1.95;;
45368;SDS011;51342;55.250;37.668;2023-07-31T14:34:02;2.92;;;2.00;;
45368;SDS011;51342;55.250;37.668;2023-07-31T14:36:33;8.80;;;2.35;;
45368;SDS011;51342;55.250;37.668;2023-07-31T14:39:05;3.67;;;2.38;;
45368;SDS011;51342;55.250;37.668;2023-07-31T14:41:36;4.57;;;2.15;;
45368;SDS011;51342;55.250;37.668;2023-07-31T14:44:08;4.13;;;2.60;;
45368;SDS011;51342;55.250;37.668;2023-07-31T14:46:39;3.60;;;2.97;;
45368;SDS011;51342;55.250;37.668;2023-07-31T14:49:10;3.60;;;2.38;;
45368;SDS011;51342;55.250;37.668;2023-07-31T14:51:42;3.78;;;2.45;;
45368;SDS011;51342;55.250;37.668;2023-07-31T14:54:13;3.03;;;2.50;;
45368;SDS011;51342;55.250;37.668;2023-07-31T14:56:45;4.25;;;3.00;;
45368;SDS011;51342;55.250;37.668;2023-07-31T14:59:16;4.55;;;2.38;;
45368;SDS011;51342;55.250;37.668;2023-07-31T15:01:47;4.47;;;2.20;;
45368;SDS011;51342;55.250;37.668;2023-07-31T15:04:19;3.40;;;2.40;;
45368;SDS011;51342;55.250;37.668;2023-07-31T15:06:51;4.35;;;2.30;;
45368;SDS011;51342;55.250;37.668;2023-07-31T15:09:23;3.55;;;2.42;;
45368;SDS011;51342;55.250;37.668;2023-07-31T15:11:55;2.90;;;2.30;;
45368;SDS011;51342;55.250;37.668;2023-07-31T15:14:27;2.45;;;2.17;;
45368;SDS011;51342;55.250;37.668;2023-07-31T15:16:59;5.43;;;2.42;;
45368;SDS011;51342;55.250;37.668;2023-07-31T15:19:31;4.10;;;2.63;;
45368;SDS011;51342;55.250;37.668;2023-07-31T15:22:05;3.67;;;2.30;;
45368;SDS011;51342;55.250;37.668;2023-07-31T15:24:37;6.60;;;2.90;;
45368;SDS011;51342;55.250;37.668;2023-07-31T15:27:08;4.82;;;2.42;;
45368;SDS011;51342;55.250;37.668;2023-07-31T15:29:40;3.65;;;2.58;;
45368;SDS011;51342;55.250;37.668;2023-07-31T15:32:11;4.18;;;2.20;;
45368;SDS011;51342;55.250;37.668;2023-07-31T15:34:43;3.92;;;2.30;;
45368;SDS011;51342;55.250;37.668;2023-07-31T15:37:14;2.88;;;2.45;;
45368;SDS011;51342;55.250;37.668;2023-07-31T15:39:48;4.63;;;2.65;;
45368;SDS011;51342;55.250;37.668;2023-07-31T15:42:19;4.57;;;2.85;;
45368;SDS011;51342;55.250;37.668;2023-07-31T15:44:51;4.68;;;2.42;;
45368;SDS011;51342;55.250;37.668;2023-07-31T15:47:23;4.55;;;2.65;;